createdAt,value
2023-04-15T00:00:03.196Z,100110.00
2023-04-15T00:02:31.249Z,100112.00
2023-04-15T00:04:59.060Z,100111.00
2023-04-15T00:07:26.741Z,100112.00
2023-04-15T00:09:56.204Z,100110.00
2023-04-15T00:12:23.963Z,100104.00
2023-04-15T00:14:53.111Z,100094.00
2023-04-15T00:17:21.023Z,100100.00
2023-04-15T00:19:48.740Z,100097.00
2023-04-15T00:22:17.179Z,100090.00
2023-04-15T00:24:44.942Z,100088.00
2023-04-15T00:27:12.592Z,100089.00
2023-04-15T00:29:40.268Z,100088.00
2023-04-15T00:32:09.487Z,100082.00
2023-04-15T00:34:37.245Z,100089.00
2023-04-15T00:37:04.998Z,100084.00
2023-04-15T00:39:32.855Z,100085.00
2023-04-15T00:42:00.694Z,100086.00
2023-04-15T00:44:28.981Z,100081.00
2023-04-15T00:46:57.681Z,100080.00
2023-04-15T00:49:27.145Z,100070.00
2023-04-15T00:51:55.226Z,100079.00
2023-04-15T00:54:23.317Z,100076.00
2023-04-15T00:56:50.981Z,100079.00
2023-04-15T00:59:19.552Z,100087.00
2023-04-15T01:01:48.416Z,100069.00
2023-04-15T01:04:17.753Z,100078.00
2023-04-15T01:06:47.181Z,100075.00
2023-04-15T01:09:14.895Z,100070.00
2023-04-15T01:11:43.000Z,100073.00
2023-04-15T01:14:11.174Z,100063.00
2023-04-15T01:16:41.214Z,100073.00
2023-04-15T01:19:10.073Z,100070.00
2023-04-15T01:21:38.305Z,100070.00
2023-04-15T01:24:10.835Z,100066.00
2023-04-15T01:26:40.950Z,100074.00
2023-04-15T01:29:08.825Z,100060.00
2023-04-15T01:31:36.573Z,100064.00
2023-04-15T01:34:04.261Z,100064.00
2023-04-15T01:36:32.056Z,100057.00
2023-04-15T01:38:59.944Z,100056.00
2023-04-15T01:41:28.816Z,100047.00
2023-04-15T01:43:57.839Z,100056.00
2023-04-15T01:46:25.764Z,100045.00
2023-04-15T01:48:53.473Z,100054.00
2023-04-15T01:51:21.957Z,100058.00
2023-04-15T01:53:49.757Z,100051.00
2023-04-15T01:56:17.475Z,100049.00
2023-04-15T01:58:45.526Z,100043.00
2023-04-15T02:01:14.619Z,100051.00
2023-04-15T02:03:42.784Z,100040.00
2023-04-15T02:06:10.639Z,100035.00
2023-04-15T02:08:38.495Z,100038.00
2023-04-15T02:11:06.402Z,100040.00
2023-04-15T02:13:34.341Z,100031.00
2023-04-15T02:16:02.121Z,100029.00
2023-04-15T02:18:31.525Z,100034.00
2023-04-15T02:20:59.401Z,100037.00
2023-04-15T02:23:27.070Z,100032.00
2023-04-15T02:25:54.824Z,100022.00
2023-04-15T02:28:22.821Z,100027.00
2023-04-15T02:30:52.769Z,100033.00
2023-04-15T02:33:21.946Z,100021.00
2023-04-15T02:35:51.054Z,100028.00
2023-04-15T02:38:18.919Z,100028.00
2023-04-15T02:40:46.708Z,100038.00
2023-04-15T02:43:14.529Z,100026.00
2023-04-15T02:45:43.497Z,100037.00
2023-04-15T02:48:11.551Z,100043.00
2023-04-15T02:50:40.777Z,100034.00
2023-04-15T02:53:10.096Z,100026.00
2023-04-15T02:55:37.759Z,100038.00
2023-04-15T02:58:05.814Z,100034.00
2023-04-15T03:00:33.581Z,100033.00
2023-04-15T03:03:04.781Z,100038.00
2023-04-15T03:05:32.718Z,100033.00
2023-04-15T03:08:01.061Z,100038.00
2023-04-15T03:10:30.218Z,100040.00
2023-04-15T03:12:57.946Z,100045.00
2023-04-15T03:15:25.677Z,100043.00
2023-04-15T03:17:53.514Z,100044.00
2023-04-15T03:20:21.528Z,100047.00
2023-04-15T03:22:49.332Z,100032.00
2023-04-15T03:25:17.191Z,100036.00
2023-04-15T03:27:46.331Z,100042.00
2023-04-15T03:30:14.904Z,100043.00
2023-04-15T03:32:42.760Z,100037.00
2023-04-15T03:35:10.839Z,100037.00
2023-04-15T03:37:38.560Z,100031.00
2023-04-15T03:40:07.393Z,100031.00
2023-04-15T03:42:35.133Z,100044.00
2023-04-15T03:45:04.522Z,100028.00
2023-04-15T03:47:32.293Z,100034.00
2023-04-15T03:50:00.051Z,100035.00
2023-04-15T03:52:27.854Z,100041.00
2023-04-15T03:54:55.979Z,100042.00
2023-04-15T03:57:23.616Z,100038.00
2023-04-15T03:59:51.351Z,100042.00
2023-04-15T04:02:20.475Z,100040.00
2023-04-15T04:04:48.379Z,100041.00
2023-04-15T04:07:17.111Z,100045.00
2023-04-15T04:09:46.636Z,100043.00
2023-04-15T04:12:14.970Z,100044.00
2023-04-15T04:14:42.822Z,100037.00
2023-04-15T04:17:10.572Z,100045.00
2023-04-15T04:19:39.671Z,100045.00
2023-04-15T04:22:07.504Z,100041.00
2023-04-15T04:24:35.273Z,100041.00
2023-04-15T04:27:03.028Z,100041.00
2023-04-15T04:29:30.854Z,100034.00
2023-04-15T04:31:58.640Z,100029.00
2023-04-15T04:34:26.639Z,100043.00
2023-04-15T04:36:55.719Z,100035.00
2023-04-15T04:39:23.563Z,100031.00
2023-04-15T04:41:52.192Z,100026.00
2023-04-15T04:44:19.896Z,100005.00
2023-04-15T04:46:47.674Z,100033.00
2023-04-15T04:49:15.444Z,100040.00
2023-04-15T04:51:43.229Z,100037.00
2023-04-15T04:54:12.299Z,100039.00
2023-04-15T04:56:40.298Z,100039.00
2023-04-15T04:59:08.149Z,100042.00
2023-04-15T05:01:36.114Z,100033.00
2023-04-15T05:04:05.183Z,100047.00
2023-04-15T05:06:33.246Z,100043.00
2023-04-15T05:09:01.323Z,100046.00
2023-04-15T05:11:30.547Z,100053.00
2023-04-15T05:13:59.693Z,100049.00
2023-04-15T05:16:27.559Z,100046.00
2023-04-15T05:18:55.283Z,100045.00
2023-04-15T05:21:23.295Z,100043.00
2023-04-15T05:23:51.197Z,100038.00
2023-04-15T05:26:18.904Z,100057.00
2023-04-15T05:28:48.028Z,100040.00
2023-04-15T05:31:16.394Z,100056.00
2023-04-15T05:33:44.232Z,100042.00
2023-04-15T05:36:12.061Z,100037.00
2023-04-15T05:38:40.150Z,100038.00
2023-04-15T05:41:08.006Z,100040.00
2023-04-15T05:43:36.200Z,100031.00
2023-04-15T05:46:05.657Z,100024.00
2023-04-15T05:48:33.390Z,100036.00
2023-04-15T05:51:01.293Z,100030.00
2023-04-15T05:53:29.097Z,100025.00
2023-04-15T05:55:57.130Z,100033.00
2023-04-15T05:58:24.888Z,100034.00
2023-04-15T06:00:52.803Z,100023.00
2023-04-15T06:03:23.494Z,100016.00
2023-04-15T06:05:51.306Z,100015.00
2023-04-15T06:08:19.280Z,100023.00
2023-04-15T06:10:47.021Z,100020.00
2023-04-15T06:13:14.797Z,100011.00
2023-04-15T06:15:42.524Z,100014.00
2023-04-15T06:18:10.278Z,100019.00
2023-04-15T06:20:39.621Z,100015.00
2023-04-15T06:23:07.313Z,100019.00
2023-04-15T06:25:35.009Z,100032.00
2023-04-15T06:28:02.752Z,100027.00
2023-04-15T06:30:30.539Z,100031.00
2023-04-15T06:32:58.956Z,100034.00
2023-04-15T06:35:27.437Z,100043.00
2023-04-15T06:37:56.742Z,100042.00
2023-04-15T06:40:24.489Z,100049.00
2023-04-15T06:42:52.252Z,100045.00
2023-04-15T06:45:19.914Z,100041.00
2023-04-15T06:47:47.713Z,100042.00
2023-04-15T06:50:15.613Z,100051.00
2023-04-15T06:52:43.376Z,100049.00
2023-04-15T06:55:15.520Z,100045.00
2023-04-15T06:57:43.290Z,100039.00
2023-04-15T07:00:12.398Z,100044.00
2023-04-15T07:02:40.303Z,100036.00
2023-04-15T07:05:08.689Z,100044.00
2023-04-15T07:07:36.733Z,100059.00
2023-04-15T07:10:05.422Z,100053.00
2023-04-15T07:12:35.842Z,100067.00
2023-04-15T07:15:03.562Z,100065.00
2023-04-15T07:17:31.272Z,100059.00
2023-04-15T07:19:58.993Z,100063.00
2023-04-15T07:22:27.191Z,100063.00
2023-04-15T07:24:55.296Z,100060.00
2023-04-15T07:27:23.207Z,100050.00
2023-04-15T07:29:52.807Z,100076.00
2023-04-15T07:32:20.930Z,100079.00
2023-04-15T07:34:48.770Z,100063.00
2023-04-15T07:37:17.596Z,100073.00
2023-04-15T07:39:45.580Z,100078.00
2023-04-15T07:42:13.763Z,100079.00
2023-04-15T07:44:42.111Z,100070.00
2023-04-15T07:47:12.060Z,100092.00
2023-04-15T07:49:40.551Z,100075.00
2023-04-15T07:52:08.994Z,100084.00
2023-04-15T07:54:37.009Z,100097.00
2023-04-15T07:57:05.700Z,100099.00
2023-04-15T07:59:34.662Z,100104.00
2023-04-15T08:02:02.829Z,100081.00
2023-04-15T08:04:32.628Z,100110.00
2023-04-15T08:07:00.572Z,100102.00
2023-04-15T08:09:28.281Z,100098.00
2023-04-15T08:11:56.485Z,100098.00
2023-04-15T08:14:25.468Z,100104.00
2023-04-15T08:16:53.383Z,100095.00
2023-04-15T08:19:21.506Z,100108.00
2023-04-15T08:21:51.151Z,100100.00
2023-04-15T08:24:19.617Z,100108.00
2023-04-15T08:26:48.323Z,100107.00
2023-04-15T08:29:16.229Z,100112.00
2023-04-15T08:31:44.984Z,100102.00
2023-04-15T08:34:13.202Z,100103.00
2023-04-15T08:36:41.095Z,100103.00
2023-04-15T08:39:10.308Z,100114.00
2023-04-15T08:41:42.107Z,100113.00
2023-04-15T08:44:11.038Z,100089.00
2023-04-15T08:46:39.594Z,100099.00
2023-04-15T08:49:11.753Z,100095.00
2023-04-15T08:51:40.180Z,100100.00
2023-04-15T08:54:09.943Z,100110.00
2023-04-15T08:56:40.592Z,100091.00
2023-04-15T08:59:08.682Z,100097.00
2023-04-15T09:01:38.630Z,100102.00
2023-04-15T09:04:08.341Z,100100.00
2023-04-15T09:06:36.323Z,100108.00
2023-04-15T09:09:04.339Z,100103.00
2023-04-15T09:11:32.331Z,100119.00
2023-04-15T09:14:01.384Z,100121.00
2023-04-15T09:16:29.331Z,100129.00
2023-04-15T09:18:57.167Z,100132.00
2023-04-15T09:21:25.863Z,100130.00
2023-04-15T09:23:58.577Z,100142.00
2023-04-15T09:26:37.079Z,100141.00
2023-04-15T09:29:13.310Z,100141.00
2023-04-15T09:31:43.311Z,100143.00
2023-04-15T09:34:11.528Z,100156.00
2023-04-15T09:36:56.898Z,100156.00
2023-04-15T09:39:24.705Z,100162.00
2023-04-15T09:42:07.683Z,100168.00
2023-04-15T09:44:36.752Z,100164.00
2023-04-15T09:47:04.488Z,100167.00
2023-04-15T09:49:32.979Z,100157.00
2023-04-15T09:52:05.683Z,100150.00
2023-04-15T09:54:36.380Z,100162.00
2023-04-15T09:57:08.979Z,100157.00
2023-04-15T09:59:38.168Z,100154.00
2023-04-15T10:02:07.748Z,100156.00
2023-04-15T10:04:37.995Z,100166.00
2023-04-15T10:07:07.259Z,100173.00
2023-04-15T10:09:37.061Z,100170.00
2023-04-15T10:12:05.637Z,100178.00
2023-04-15T10:14:35.474Z,100170.00
2023-04-15T10:17:06.667Z,100161.00
2023-04-15T10:19:37.687Z,100173.00
2023-04-15T10:22:06.060Z,100174.00
2023-04-15T10:24:34.266Z,100169.00
2023-04-15T10:27:04.337Z,100166.00
2023-04-15T10:29:33.326Z,100175.00
2023-04-15T10:32:04.263Z,100173.00
2023-04-15T10:34:33.206Z,100162.00
2023-04-15T10:37:03.543Z,100163.00
2023-04-15T10:39:43.079Z,100152.00
2023-04-15T10:42:12.310Z,100153.00
2023-04-15T10:44:40.811Z,100157.00
2023-04-15T10:47:13.719Z,100153.00
2023-04-15T10:49:46.223Z,100165.00
2023-04-15T10:52:16.568Z,100167.00
2023-04-15T10:54:44.936Z,100164.00
2023-04-15T10:57:17.903Z,100168.00
2023-04-15T11:00:06.412Z,100164.00
2023-04-15T11:02:43.569Z,100169.00
2023-04-15T11:05:12.013Z,100166.00
2023-04-15T11:07:42.403Z,100176.00
2023-04-15T11:10:58.857Z,100184.00
2023-04-15T11:13:28.909Z,100163.00
2023-04-15T11:16:01.806Z,100186.00
2023-04-15T11:18:35.526Z,100176.00
2023-04-15T11:21:05.984Z,100188.00
2023-04-15T11:23:36.713Z,100184.00
2023-04-15T11:26:09.152Z,100186.00
2023-04-15T11:28:38.930Z,100195.00
2023-04-15T11:31:10.648Z,100196.00
2023-04-15T11:33:45.783Z,100186.00
2023-04-15T11:36:13.746Z,100215.00
2023-04-15T11:38:44.244Z,100205.00
2023-04-15T11:41:12.570Z,100202.00
2023-04-15T11:43:40.350Z,100210.00
2023-04-15T11:46:08.441Z,100222.00
2023-04-15T11:48:42.929Z,100225.00
2023-04-15T11:51:10.905Z,100233.00
2023-04-15T11:53:41.274Z,100230.00
2023-04-15T11:56:09.995Z,100239.00
2023-04-15T11:58:39.552Z,100241.00
2023-04-15T12:01:08.298Z,100235.00
2023-04-15T12:03:41.746Z,100240.00
2023-04-15T12:06:20.023Z,100235.00
2023-04-15T12:08:59.356Z,100240.00
2023-04-15T12:11:42.935Z,100248.00
2023-04-15T12:14:13.593Z,100242.00
2023-04-15T12:16:48.216Z,100247.00
2023-04-15T12:19:22.139Z,100250.00
2023-04-15T12:21:50.509Z,100255.00
2023-04-15T12:24:22.794Z,100263.00
2023-04-15T12:26:52.978Z,100276.00
2023-04-15T12:29:21.452Z,100271.00
2023-04-15T12:31:55.451Z,100271.00
2023-04-15T12:34:31.864Z,100268.00
2023-04-15T12:37:01.663Z,100273.00
2023-04-15T12:39:31.292Z,100264.00
2023-04-15T12:42:00.139Z,100281.00
2023-04-15T12:44:28.478Z,100282.00
2023-04-15T12:46:56.812Z,100277.00
2023-04-15T12:49:25.583Z,100285.00
2023-04-15T12:51:56.581Z,100296.00
2023-04-15T12:54:24.783Z,100301.00
2023-04-15T12:56:54.160Z,100293.00
2023-04-15T12:59:23.768Z,100291.00
2023-04-15T13:01:52.190Z,100297.00
2023-04-15T13:04:21.142Z,100308.00
2023-04-15T13:06:49.049Z,100312.00
2023-04-15T13:09:18.190Z,100306.00
2023-04-15T13:11:46.279Z,100305.00
2023-04-15T13:14:14.047Z,100309.00
2023-04-15T13:16:41.916Z,100312.00
2023-04-15T13:19:09.708Z,100312.00
2023-04-15T13:21:37.954Z,100321.00
2023-04-15T13:24:07.633Z,100306.00
2023-04-15T13:26:37.746Z,100316.00
2023-04-15T13:29:05.519Z,100303.00
2023-04-15T13:31:33.368Z,100321.00
2023-04-15T13:34:03.417Z,100317.00
2023-04-15T13:36:31.346Z,100323.00
2023-04-15T13:38:59.946Z,100322.00
2023-04-15T13:41:27.774Z,100323.00
2023-04-15T13:43:58.409Z,100326.00
2023-04-15T13:46:26.745Z,100338.00
2023-04-15T13:48:54.589Z,100322.00
2023-04-15T13:51:22.275Z,100325.00
2023-04-15T13:53:49.975Z,100333.00
2023-04-15T13:56:17.688Z,100334.00
2023-04-15T13:58:45.597Z,100335.00
2023-04-15T14:01:14.888Z,100338.00
2023-04-15T14:03:42.840Z,100338.00
2023-04-15T14:06:11.338Z,100330.00
2023-04-15T14:08:39.065Z,100334.00
2023-04-15T14:11:07.797Z,100337.00
2023-04-15T14:13:35.695Z,100345.00
2023-04-15T14:16:04.319Z,100345.00
2023-04-15T14:18:34.195Z,100337.00
2023-04-15T14:21:02.321Z,100342.00
2023-04-15T14:23:30.177Z,100350.00
2023-04-15T14:25:57.869Z,100350.00
2023-04-15T14:28:26.003Z,100353.00
2023-04-15T14:30:53.921Z,100352.00
2023-04-15T14:33:21.653Z,100355.00
2023-04-15T14:35:50.768Z,100362.00
2023-04-15T14:38:18.708Z,100366.00
2023-04-15T14:40:46.395Z,100368.00
2023-04-15T14:43:14.146Z,100366.00
2023-04-15T14:45:43.771Z,100370.00
2023-04-15T14:48:13.086Z,100383.00
2023-04-15T14:50:41.329Z,100380.00
2023-04-15T14:53:10.578Z,100369.00
2023-04-15T14:55:38.512Z,100381.00
2023-04-15T14:58:08.124Z,100381.00
2023-04-15T15:00:39.338Z,100384.00
2023-04-15T15:03:12.558Z,100371.00
2023-04-15T15:05:41.151Z,100377.00
2023-04-15T15:08:11.037Z,100381.00
2023-04-15T15:10:49.002Z,100386.00
2023-04-15T15:13:18.123Z,100399.00
2023-04-15T15:15:46.188Z,100397.00
2023-04-15T15:18:13.926Z,100401.00
2023-04-15T15:20:41.625Z,100398.00
2023-04-15T15:23:10.722Z,100393.00
2023-04-15T15:25:38.567Z,100401.00
2023-04-15T15:28:06.813Z,100398.00
2023-04-15T15:30:34.568Z,100395.00
2023-04-15T15:33:02.422Z,100410.00
2023-04-15T15:35:30.396Z,100402.00
2023-04-15T15:37:58.156Z,100412.00
2023-04-15T15:40:27.221Z,100401.00
2023-04-15T15:42:54.914Z,100405.00
2023-04-15T15:45:23.331Z,100406.00
2023-04-15T15:47:51.181Z,100406.00
2023-04-15T15:50:19.302Z,100399.00
2023-04-15T15:52:47.040Z,100404.00
2023-04-15T15:55:15.185Z,100410.00
2023-04-15T15:57:44.272Z,100413.00
2023-04-15T16:00:13.311Z,100406.00
2023-04-15T16:05:12.144Z,100424.00
2023-04-15T16:07:39.827Z,100426.00
2023-04-15T16:10:08.674Z,100434.00
2023-04-15T16:12:36.376Z,100435.00
2023-04-15T16:15:06.412Z,100432.00
2023-04-15T16:17:34.320Z,100435.00
2023-04-15T16:20:05.473Z,100444.00
2023-04-15T16:22:33.558Z,100437.00
2023-04-15T16:25:02.430Z,100441.00
2023-04-15T16:27:30.274Z,100441.00
2023-04-15T16:29:58.068Z,100440.00
2023-04-15T16:32:27.491Z,100457.00
2023-04-15T16:34:55.412Z,100449.00
2023-04-15T16:37:23.364Z,100462.00
2023-04-15T16:39:51.077Z,100466.00
2023-04-15T16:42:18.751Z,100471.00
2023-04-15T16:44:46.493Z,100470.00
2023-04-15T16:47:14.758Z,100478.00
2023-04-15T16:49:44.047Z,100476.00
2023-04-15T16:52:11.801Z,100487.00
2023-04-15T16:54:41.317Z,100487.00
2023-04-15T16:57:09.201Z,100496.00
2023-04-15T16:59:37.028Z,100498.00
2023-04-15T17:02:04.876Z,100488.00
2023-04-15T17:04:33.076Z,100503.00
2023-04-15T17:07:02.344Z,100499.00
2023-04-15T17:09:30.069Z,100502.00
2023-04-15T17:11:57.863Z,100515.00
2023-04-15T17:14:25.849Z,100520.00
2023-04-15T17:16:53.534Z,100515.00
2023-04-15T17:19:21.286Z,100520.00
2023-04-15T17:21:49.038Z,100527.00
2023-04-15T17:24:18.255Z,100528.00
2023-04-15T17:26:46.888Z,100524.00
2023-04-15T17:29:14.625Z,100522.00
2023-04-15T17:31:42.767Z,100524.00
2023-04-15T17:34:15.727Z,100540.00
2023-04-15T17:36:44.264Z,100541.00
2023-04-15T17:39:14.091Z,100522.00
2023-04-15T17:41:43.506Z,100537.00
2023-04-15T17:44:11.333Z,100541.00
2023-04-15T17:46:42.944Z,100557.00
2023-04-15T17:49:10.831Z,100548.00
2023-04-15T17:51:38.514Z,100565.00
2023-04-15T17:54:06.491Z,100563.00
2023-04-15T17:56:34.736Z,100558.00
2023-04-15T17:59:03.855Z,100554.00
2023-04-15T18:01:31.602Z,100575.00
2023-04-15T18:03:59.636Z,100567.00
2023-04-15T18:06:27.889Z,100576.00
2023-04-15T18:08:56.088Z,100578.00
2023-04-15T18:11:23.937Z,100578.00
2023-04-15T18:13:51.632Z,100578.00
2023-04-15T18:16:20.829Z,100588.00
2023-04-15T18:18:48.675Z,100587.00
2023-04-15T18:21:16.407Z,100596.00
2023-04-15T18:23:44.088Z,100600.00
2023-04-15T18:26:11.904Z,100591.00
2023-04-15T18:28:39.887Z,100599.00
2023-04-15T18:31:07.813Z,100600.00
2023-04-15T18:33:37.432Z,100602.00
2023-04-15T18:36:05.341Z,100615.00
2023-04-15T18:38:33.087Z,100611.00
2023-04-15T18:41:00.749Z,100617.00
2023-04-15T18:43:28.821Z,100631.00
2023-04-15T18:45:56.720Z,100627.00
2023-04-15T18:48:24.516Z,100633.00
2023-04-15T18:50:54.301Z,100641.00
2023-04-15T18:53:22.164Z,100635.00
2023-04-15T18:55:49.862Z,100646.00
2023-04-15T18:58:18.523Z,100648.00
2023-04-15T19:00:46.259Z,100655.00
2023-04-15T19:03:14.093Z,100655.00
2023-04-15T19:05:41.870Z,100655.00
2023-04-15T19:08:11.695Z,100664.00
2023-04-15T19:10:39.536Z,100662.00
2023-04-15T19:13:07.273Z,100668.00
2023-04-15T19:15:35.014Z,100664.00
2023-04-15T19:18:04.468Z,100659.00
2023-04-15T19:20:35.643Z,100669.00
2023-04-15T19:23:05.158Z,100673.00
2023-04-15T19:25:34.331Z,100679.00
2023-04-15T19:28:02.156Z,100677.00
2023-04-15T19:30:32.295Z,100680.00
2023-04-15T19:33:00.187Z,100682.00
2023-04-15T19:35:28.024Z,100694.00
2023-04-15T19:37:56.032Z,100697.00
2023-04-15T19:40:24.367Z,100700.00
2023-04-15T19:42:53.378Z,100701.00
2023-04-15T19:45:21.066Z,100703.00
2023-04-15T19:47:49.128Z,100709.00
2023-04-15T19:50:16.944Z,100711.00
2023-04-15T19:52:44.724Z,100710.00
2023-04-15T19:55:12.463Z,100709.00
2023-04-15T19:57:40.116Z,100712.00
2023-04-15T20:00:10.877Z,100709.00
2023-04-15T20:02:38.745Z,100718.00
2023-04-15T20:05:09.713Z,100716.00
2023-04-15T20:07:37.600Z,100722.00
2023-04-15T20:10:12.224Z,100720.00
2023-04-15T20:12:51.327Z,100725.00
2023-04-15T20:15:23.460Z,100726.00
2023-04-15T20:17:51.551Z,100727.00
2023-04-15T20:20:19.636Z,100729.00
2023-04-15T20:22:47.384Z,100723.00
2023-04-15T20:25:15.257Z,100727.00
2023-04-15T20:27:42.972Z,100732.00
2023-04-15T20:30:11.553Z,100733.00
2023-04-15T20:32:40.726Z,100737.00
2023-04-15T20:35:08.898Z,100726.00
2023-04-15T20:37:40.261Z,100744.00
2023-04-15T20:40:09.121Z,100736.00
2023-04-15T20:42:36.805Z,100738.00
2023-04-15T20:45:07.192Z,100737.00
2023-04-15T20:47:34.917Z,100739.00
2023-04-15T20:50:04.026Z,100745.00
2023-04-15T20:52:31.739Z,100759.00
2023-04-15T20:54:59.489Z,100750.00
2023-04-15T20:57:28.660Z,100751.00
2023-04-15T20:59:56.528Z,100755.00
2023-04-15T21:02:38.814Z,100754.00
2023-04-15T21:05:18.076Z,100738.00
2023-04-15T21:07:46.227Z,100743.00
2023-04-15T21:10:14.377Z,100763.00
2023-04-15T21:12:45.189Z,100759.00
2023-04-15T21:15:14.410Z,100774.00
2023-04-15T21:17:42.206Z,100783.00
2023-04-15T21:20:10.989Z,100775.00
2023-04-15T21:22:40.308Z,100774.00
2023-04-15T21:25:08.770Z,100781.00
2023-04-15T21:27:36.550Z,100788.00
2023-04-15T21:30:04.696Z,100780.00
2023-04-15T21:32:32.442Z,100794.00
2023-04-15T21:35:00.166Z,100781.00
2023-04-15T21:37:27.957Z,100802.00
2023-04-15T21:39:57.029Z,100801.00
2023-04-15T21:42:24.915Z,100794.00
2023-04-15T21:44:52.621Z,100800.00
2023-04-15T21:47:20.390Z,100799.00
2023-04-15T21:49:48.414Z,100813.00
2023-04-15T21:52:16.115Z,100810.00
2023-04-15T21:54:43.775Z,100817.00
2023-04-15T21:57:12.933Z,100820.00
2023-04-15T21:59:40.654Z,100819.00
2023-04-15T22:02:08.485Z,100814.00
2023-04-15T22:04:36.307Z,100819.00
2023-04-15T22:07:04.200Z,100811.00
2023-04-15T22:09:31.828Z,100822.00
2023-04-15T22:12:00.934Z,100825.00
2023-04-15T22:14:31.004Z,100822.00
2023-04-15T22:16:58.757Z,100831.00
2023-04-15T22:19:27.178Z,100816.00
2023-04-15T22:21:54.851Z,100833.00
2023-04-15T22:24:34.459Z,100836.00
2023-04-15T22:27:08.205Z,100836.00
2023-04-15T22:29:37.350Z,100839.00
2023-04-15T22:32:05.616Z,100847.00
2023-04-15T22:34:33.457Z,100846.00
2023-04-15T22:37:01.137Z,100844.00
2023-04-15T22:39:28.851Z,100855.00
2023-04-15T22:41:57.152Z,100837.00
2023-04-15T22:44:24.909Z,100857.00
2023-04-15T22:46:54.021Z,100858.00
2023-04-15T22:49:21.729Z,100867.00
2023-04-15T22:51:49.439Z,100863.00
2023-04-15T22:54:17.080Z,100851.00
2023-04-15T22:56:44.839Z,100861.00
2023-04-15T22:59:12.508Z,100878.00
2023-04-15T23:01:40.329Z,100861.00
2023-04-15T23:04:23.586Z,100871.00
2023-04-15T23:06:54.585Z,100879.00
2023-04-15T23:09:22.459Z,100891.00
2023-04-15T23:11:50.329Z,100890.00
2023-04-15T23:14:18.013Z,100881.00
2023-04-15T23:16:46.360Z,100869.00
2023-04-15T23:19:15.771Z,100891.00
2023-04-15T23:21:43.493Z,100891.00
2023-04-15T23:24:11.169Z,100898.00
2023-04-15T23:26:38.972Z,100894.00
2023-04-15T23:29:07.318Z,100890.00
2023-04-15T23:31:35.440Z,100903.00
2023-04-15T23:34:04.056Z,100900.00
2023-04-15T23:36:33.156Z,100894.00
2023-04-15T23:39:00.903Z,100905.00
2023-04-15T23:41:29.735Z,100898.00
2023-04-15T23:43:57.428Z,100903.00
2023-04-15T23:46:25.128Z,100896.00
2023-04-15T23:48:52.799Z,100906.00
2023-04-15T23:51:20.556Z,100898.00
2023-04-15T23:53:52.420Z,100905.00
2023-04-15T23:56:20.924Z,100910.00
2023-04-15T23:58:48.658Z,100913.00
